createdAt,value
2018-04-14T00:00:23.064Z,989.33
2018-04-14T00:01:22.797Z,989.26
2018-04-14T00:02:22.820Z,989.26
2018-04-14T00:03:22.754Z,989.25
2018-04-14T00:04:22.782Z,989.16
2018-04-14T00:05:22.866Z,989.15
2018-04-14T00:06:22.688Z,989.18
2018-04-14T00:07:22.666Z,989.24
2018-04-14T00:08:22.653Z,989.22
2018-04-14T00:09:22.652Z,989.24
2018-04-14T00:10:22.701Z,989.28
2018-04-14T00:11:22.558Z,989.28
2018-04-14T00:12:22.555Z,989.34
2018-04-14T00:13:22.524Z,989.39
2018-04-14T00:14:22.506Z,989.41
2018-04-14T00:15:23.063Z,989.44
2018-04-14T00:16:22.551Z,989.45
2018-04-14T00:17:22.407Z,989.48
2018-04-14T00:18:22.418Z,989.49
2018-04-14T00:19:22.401Z,989.49
2018-04-14T00:20:23.519Z,989.53
2018-04-14T00:21:23.148Z,989.54
2018-04-14T00:22:22.444Z,989.58
2018-04-14T00:23:22.293Z,989.61
2018-04-14T00:24:23.607Z,989.69
2018-04-14T00:25:25.009Z,989.70
2018-04-14T00:26:23.167Z,989.72
2018-04-14T00:27:22.983Z,989.74
2018-04-14T00:28:23.088Z,989.76
2018-04-14T00:29:23.128Z,989.75
2018-04-14T00:30:22.829Z,989.78
2018-04-14T00:31:23.660Z,989.77
2018-04-14T00:32:23.188Z,989.78
2018-04-14T00:33:22.529Z,989.75
2018-04-14T00:34:22.747Z,989.76
2018-04-14T00:35:23.169Z,989.80
2018-04-14T00:36:22.354Z,989.78
2018-04-14T00:37:23.164Z,989.76
2018-04-14T00:38:23.645Z,989.76
2018-04-14T00:39:22.912Z,989.79
2018-04-14T00:40:21.878Z,989.77
2018-04-14T00:41:21.921Z,989.79
2018-04-14T00:42:21.914Z,989.75
2018-04-14T00:43:21.824Z,989.77
2018-04-14T00:44:21.751Z,989.81
2018-04-14T00:45:22.430Z,989.82
2018-04-14T00:46:22.471Z,989.81
2018-04-14T00:47:21.842Z,989.84
2018-04-14T00:48:21.651Z,989.81
2018-04-14T00:49:21.621Z,989.85
2018-04-14T00:50:21.810Z,989.87
2018-04-14T00:51:22.094Z,989.89
2018-04-14T00:52:21.695Z,989.85
2018-04-14T00:53:21.525Z,989.86
2018-04-14T00:54:21.487Z,989.84
2018-04-14T00:55:21.466Z,989.88
2018-04-14T00:56:21.542Z,989.91
2018-04-14T00:57:22.349Z,989.94
2018-04-14T00:58:21.790Z,989.93
2018-04-14T00:59:21.430Z,989.96
2018-04-14T01:00:21.829Z,990.00
2018-04-14T01:01:21.649Z,990.02
2018-04-14T01:02:21.496Z,990.01
2018-04-14T01:03:21.646Z,990.03
2018-04-14T01:04:21.317Z,990.07
2018-04-14T01:05:21.307Z,990.08
2018-04-14T01:06:21.988Z,990.07
2018-04-14T01:07:21.225Z,990.10
2018-04-14T01:08:21.462Z,990.06
2018-04-14T01:09:21.159Z,990.09
2018-04-14T01:10:21.073Z,990.06
2018-04-14T01:11:21.590Z,990.05
2018-04-14T01:12:21.028Z,990.05
2018-04-14T01:13:21.313Z,990.06
2018-04-14T01:14:21.196Z,990.06
2018-04-14T01:15:20.943Z,990.11
2018-04-14T01:16:21.373Z,990.08
2018-04-14T01:17:21.223Z,990.10
2018-04-14T01:18:21.611Z,990.15
2018-04-14T01:19:21.171Z,990.17
2018-04-14T01:20:21.000Z,990.16
2018-04-14T01:21:20.894Z,990.17
2018-04-14T01:22:21.268Z,990.19
2018-04-14T01:23:21.377Z,990.22
2018-04-14T01:24:21.253Z,990.23
2018-04-14T01:25:20.984Z,990.23
2018-04-14T01:26:20.874Z,990.26
2018-04-14T01:27:20.961Z,990.28
2018-04-14T01:28:20.707Z,990.31
2018-04-14T01:29:21.141Z,990.29
2018-04-14T01:30:20.727Z,990.33
2018-04-14T01:31:20.717Z,990.32
2018-04-14T01:32:21.271Z,990.37
2018-04-14T01:33:20.695Z,990.34
2018-04-14T01:34:21.347Z,990.34
2018-04-14T01:35:20.718Z,990.37
2018-04-14T01:36:20.696Z,990.38
2018-04-14T01:37:20.888Z,990.42
2018-04-14T01:38:20.466Z,990.45
2018-04-14T01:39:20.506Z,990.46
2018-04-14T01:40:20.415Z,990.50
2018-04-14T01:41:21.063Z,990.53
2018-04-14T01:42:20.277Z,990.57
2018-04-14T01:43:20.242Z,990.53
2018-04-14T01:44:20.233Z,990.58
2018-04-14T01:45:20.763Z,990.54
2018-04-14T01:46:20.293Z,990.57
2018-04-14T01:47:20.735Z,990.59
2018-04-14T01:48:20.156Z,990.60
2018-04-14T01:49:20.154Z,990.60
2018-04-14T01:50:20.203Z,990.68
2018-04-14T01:51:20.111Z,990.66
2018-04-14T01:52:20.490Z,990.71
2018-04-14T01:53:20.026Z,990.75
2018-04-14T01:54:19.985Z,990.76
2018-04-14T01:55:19.959Z,990.83
2018-04-14T01:56:20.658Z,990.87
2018-04-14T01:57:19.875Z,990.94
2018-04-14T01:58:20.379Z,990.94
2018-04-14T01:59:19.842Z,990.96
2018-04-14T02:00:19.868Z,990.92
2018-04-14T02:01:20.577Z,990.96
2018-04-14T02:02:20.296Z,991.03
2018-04-14T02:03:19.684Z,990.99
2018-04-14T02:04:19.704Z,991.00
2018-04-14T02:05:19.670Z,991.00
2018-04-14T02:06:20.282Z,991.05
2018-04-14T02:07:20.179Z,991.08
2018-04-14T02:08:19.574Z,991.11
2018-04-14T02:09:19.581Z,991.11
2018-04-14T02:10:19.565Z,991.16
2018-04-14T02:11:19.615Z,991.25
2018-04-14T02:12:19.685Z,991.25
2018-04-14T02:13:19.468Z,991.23
2018-04-14T02:14:19.656Z,991.13
2018-04-14T02:15:19.852Z,991.13
2018-04-14T02:16:19.379Z,991.11
2018-04-14T02:17:19.892Z,991.11
2018-04-14T02:18:19.417Z,991.11
2018-04-14T02:19:19.917Z,991.08
2018-04-14T02:20:19.268Z,991.08
2018-04-14T02:21:19.248Z,991.09
2018-04-14T02:22:19.246Z,991.16
2018-04-14T02:23:19.310Z,991.14
2018-04-14T02:24:19.723Z,991.12
2018-04-14T02:25:19.705Z,991.12
2018-04-14T02:26:19.121Z,991.11
2018-04-14T02:27:19.086Z,991.13
2018-04-14T02:28:19.217Z,991.10
2018-04-14T02:29:19.016Z,991.11
2018-04-14T02:30:19.021Z,991.11
2018-04-14T02:31:18.979Z,991.11
2018-04-14T02:32:19.477Z,991.17
2018-04-14T02:33:19.568Z,991.18
2018-04-14T02:34:18.938Z,991.22
2018-04-14T02:35:18.944Z,991.21
2018-04-14T02:36:19.391Z,991.23
2018-04-14T02:37:18.803Z,991.24
2018-04-14T02:38:19.059Z,991.21
2018-04-14T02:39:18.872Z,991.26
2018-04-14T02:40:19.441Z,991.23
2018-04-14T02:41:19.352Z,991.19
2018-04-14T02:42:18.830Z,991.18
2018-04-14T02:43:18.711Z,991.17
2018-04-14T02:44:18.812Z,991.14
2018-04-14T02:45:18.605Z,991.16
2018-04-14T02:46:18.583Z,991.11
2018-04-14T02:47:18.542Z,991.11
2018-04-14T02:48:18.537Z,991.14
2018-04-14T02:49:18.503Z,991.11
2018-04-14T02:50:18.496Z,991.13
2018-04-14T02:51:18.442Z,991.14
2018-04-14T02:52:18.439Z,991.13
2018-04-14T02:53:18.357Z,991.11
2018-04-14T02:54:18.861Z,991.15
2018-04-14T02:55:18.446Z,991.12
2018-04-14T02:56:18.364Z,991.13
2018-04-14T02:57:18.267Z,991.16
2018-04-14T02:58:18.308Z,991.14
2018-04-14T02:59:18.227Z,991.13
2018-04-14T03:00:18.921Z,991.18
2018-04-14T03:01:18.709Z,991.20
2018-04-14T03:02:18.181Z,991.18
2018-04-14T03:03:18.140Z,991.20
2018-04-14T03:04:18.126Z,991.22
2018-04-14T03:05:18.229Z,991.26
2018-04-14T03:06:18.030Z,991.29
2018-04-14T03:07:18.570Z,991.31
2018-04-14T03:08:18.506Z,991.28
2018-04-14T03:09:18.511Z,991.27
2018-04-14T03:10:18.274Z,991.26
2018-04-14T03:11:17.946Z,991.27
2018-04-14T03:12:17.878Z,991.26
2018-04-14T03:13:17.832Z,991.23
2018-04-14T03:14:17.830Z,991.25
2018-04-14T03:15:17.873Z,991.22
2018-04-14T03:16:17.900Z,991.23
2018-04-14T03:17:17.778Z,991.14
2018-04-14T03:18:17.754Z,991.15
2018-04-14T03:19:18.203Z,991.14
2018-04-14T03:20:17.681Z,991.18
2018-04-14T03:21:17.680Z,991.18
2018-04-14T03:22:17.657Z,991.18
2018-04-14T03:23:17.543Z,991.22
2018-04-14T03:24:17.527Z,991.20
2018-04-14T03:25:17.976Z,991.23
2018-04-14T03:26:17.500Z,991.26
2018-04-14T03:27:17.497Z,991.26
2018-04-14T03:28:17.490Z,991.31
2018-04-14T03:29:17.433Z,991.28
2018-04-14T03:30:17.366Z,991.28
2018-04-14T03:31:17.848Z,991.30
2018-04-14T03:32:17.433Z,991.29
2018-04-14T03:33:17.318Z,991.27
2018-04-14T03:34:17.286Z,991.28
2018-04-14T03:35:17.351Z,991.31
2018-04-14T03:36:17.209Z,991.38
2018-04-14T03:37:17.511Z,991.42
2018-04-14T03:38:17.236Z,991.47
2018-04-14T03:39:17.191Z,991.54
2018-04-14T03:40:17.151Z,991.59
2018-04-14T03:41:17.213Z,991.66
2018-04-14T03:42:17.149Z,991.71
2018-04-14T03:43:17.560Z,991.74
2018-04-14T03:44:17.433Z,991.76
2018-04-14T03:45:17.175Z,991.73
2018-04-14T03:46:17.572Z,991.75
2018-04-14T03:47:17.575Z,991.74
2018-04-14T03:48:17.405Z,991.73
2018-04-14T03:49:17.008Z,991.71
2018-04-14T03:50:16.960Z,991.69
2018-04-14T03:51:17.296Z,991.68
2018-04-14T03:52:17.222Z,991.65
2018-04-14T03:53:17.265Z,991.62
2018-04-14T03:54:16.905Z,991.57
2018-04-14T03:55:17.126Z,991.54
2018-04-14T03:56:17.150Z,991.51
2018-04-14T03:57:16.694Z,991.47
2018-04-14T03:58:16.658Z,991.44
2018-04-14T03:59:16.579Z,991.36
2018-04-14T04:00:16.583Z,991.35
2018-04-14T04:01:16.548Z,991.35
2018-04-14T04:02:16.580Z,991.34
2018-04-14T04:03:16.586Z,991.33
2018-04-14T04:04:16.536Z,991.33
2018-04-14T04:05:16.471Z,991.38
2018-04-14T04:06:16.451Z,991.45
2018-04-14T04:07:16.419Z,991.49
2018-04-14T04:08:16.351Z,991.52
2018-04-14T04:09:16.341Z,991.57
2018-04-14T04:10:16.258Z,991.58
2018-04-14T04:11:16.223Z,991.58
2018-04-14T04:12:16.494Z,991.59
2018-04-14T04:13:16.205Z,991.58
2018-04-14T04:14:16.322Z,991.53
2018-04-14T04:15:16.335Z,991.47
2018-04-14T04:16:16.331Z,991.47
2018-04-14T04:17:16.083Z,991.44
2018-04-14T04:18:16.201Z,991.44
2018-04-14T04:19:16.255Z,991.40
2018-04-14T04:20:16.105Z,991.41
2018-04-14T04:21:16.009Z,991.39
2018-04-14T04:22:15.940Z,991.39
2018-04-14T04:23:16.031Z,991.35
2018-04-14T04:24:15.944Z,991.39
2018-04-14T04:25:15.954Z,991.39
2018-04-14T04:26:15.845Z,991.49
2018-04-14T04:27:15.813Z,991.45
2018-04-14T04:28:15.826Z,991.53
2018-04-14T04:29:15.743Z,991.60
2018-04-14T04:30:15.862Z,991.60
2018-04-14T04:31:15.678Z,991.59
2018-04-14T04:32:15.683Z,991.59
2018-04-14T04:33:15.644Z,991.56
2018-04-14T04:34:15.642Z,991.55
2018-04-14T04:35:15.868Z,991.51
2018-04-14T04:36:15.555Z,991.50
2018-04-14T04:37:15.519Z,991.40
2018-04-14T04:38:15.524Z,991.42
2018-04-14T04:39:15.496Z,991.37
2018-04-14T04:40:15.450Z,991.34
2018-04-14T04:41:15.520Z,991.30
2018-04-14T04:42:15.400Z,991.31
2018-04-14T04:43:15.378Z,991.28
2018-04-14T04:44:15.344Z,991.24
2018-04-14T04:45:15.347Z,991.24
2018-04-14T04:46:15.437Z,991.20
2018-04-14T04:47:15.266Z,991.16
2018-04-14T04:48:15.337Z,991.12
2018-04-14T04:49:15.187Z,991.14
2018-04-14T04:50:15.202Z,991.11
2018-04-14T04:51:15.345Z,991.08
2018-04-14T04:52:15.106Z,991.07
2018-04-14T04:53:15.082Z,991.06
2018-04-14T04:54:15.069Z,991.04
2018-04-14T04:55:15.075Z,990.99
2018-04-14T04:56:15.188Z,991.01
2018-04-14T04:57:15.029Z,991.02
2018-04-14T04:58:14.940Z,991.01
2018-04-14T04:59:15.324Z,990.97
2018-04-14T05:00:14.915Z,990.98
2018-04-14T05:01:15.025Z,990.98
2018-04-14T05:02:15.471Z,990.97
2018-04-14T05:03:15.164Z,990.94
2018-04-14T05:04:14.827Z,990.94
2018-04-14T05:05:15.095Z,990.90
2018-04-14T05:06:14.815Z,990.86
2018-04-14T05:07:15.106Z,990.87
2018-04-14T05:08:14.768Z,990.87
2018-04-14T05:09:14.693Z,990.86
2018-04-14T05:10:14.632Z,990.86
2018-04-14T05:11:14.973Z,990.86
2018-04-14T05:12:15.122Z,990.83
2018-04-14T05:13:14.631Z,990.82
2018-04-14T05:14:14.533Z,990.84
2018-04-14T05:15:14.508Z,990.81
2018-04-14T05:16:14.637Z,990.80
2018-04-14T05:17:14.454Z,990.81
2018-04-14T05:18:14.577Z,990.80
2018-04-14T05:19:14.578Z,990.78
2018-04-14T05:20:14.640Z,990.76
2018-04-14T05:21:14.497Z,990.74
2018-04-14T05:22:14.309Z,990.74
2018-04-14T05:23:14.286Z,990.72
2018-04-14T05:24:14.388Z,990.70
2018-04-14T05:25:14.252Z,990.69
2018-04-14T05:26:14.179Z,990.70
2018-04-14T05:27:14.154Z,990.71
2018-04-14T05:28:14.150Z,990.70
2018-04-14T05:29:14.108Z,990.64
2018-04-14T05:30:14.078Z,990.64
2018-04-14T05:31:14.080Z,990.66
2018-04-14T05:32:14.036Z,990.61
2018-04-14T05:33:14.018Z,990.63
2018-04-14T05:34:14.049Z,990.61
2018-04-14T05:35:13.955Z,990.56
2018-04-14T05:36:13.959Z,990.55
2018-04-14T05:37:14.059Z,990.50
2018-04-14T05:38:13.852Z,990.47
2018-04-14T05:39:13.991Z,990.45
2018-04-14T05:40:13.853Z,990.43
2018-04-14T05:41:14.109Z,990.41
2018-04-14T05:42:13.779Z,990.40
2018-04-14T05:43:13.724Z,990.39
2018-04-14T05:44:13.792Z,990.38
2018-04-14T05:45:13.730Z,990.35
2018-04-14T05:46:13.650Z,990.37
2018-04-14T05:47:13.717Z,990.38
2018-04-14T05:48:13.951Z,990.41
2018-04-14T05:49:13.833Z,990.40
2018-04-14T05:50:13.870Z,990.35
2018-04-14T05:51:13.815Z,990.38
2018-04-14T05:52:13.499Z,990.38
2018-04-14T05:53:13.533Z,990.34
2018-04-14T05:54:13.636Z,990.34
2018-04-14T05:55:13.894Z,990.31
2018-04-14T05:56:13.393Z,990.29
2018-04-14T05:57:13.374Z,990.26
2018-04-14T05:58:13.314Z,990.26
2018-04-14T05:59:13.326Z,990.23
2018-04-14T06:00:13.312Z,990.18
2018-04-14T06:01:13.492Z,990.14
2018-04-14T06:02:13.437Z,990.13
2018-04-14T06:03:13.297Z,990.11
2018-04-14T06:04:13.153Z,990.09
2018-04-14T06:05:13.144Z,990.09
2018-04-14T06:06:13.106Z,990.06
2018-04-14T06:07:13.131Z,990.06
2018-04-14T06:08:13.055Z,990.03
2018-04-14T06:09:13.366Z,989.98
2018-04-14T06:10:13.085Z,990.01
2018-04-14T06:11:13.033Z,989.96
2018-04-14T06:12:12.970Z,989.93
2018-04-14T06:13:12.926Z,989.89
2018-04-14T06:14:12.889Z,989.90
2018-04-14T06:15:12.901Z,989.87
2018-04-14T06:16:13.293Z,989.85
2018-04-14T06:17:12.904Z,989.86
2018-04-14T06:18:12.812Z,989.86
2018-04-14T06:19:12.768Z,989.84
2018-04-14T06:20:12.752Z,989.81
2018-04-14T06:21:12.882Z,989.79
2018-04-14T06:22:12.809Z,989.80
2018-04-14T06:23:12.641Z,989.77
2018-04-14T06:24:12.666Z,989.78
2018-04-14T06:25:12.763Z,989.75
2018-04-14T06:26:12.595Z,989.71
2018-04-14T06:27:13.042Z,989.73
2018-04-14T06:28:12.576Z,989.71
2018-04-14T06:29:12.494Z,989.69
2018-04-14T06:30:12.452Z,989.69
2018-04-14T06:31:12.394Z,989.70
2018-04-14T06:32:12.397Z,989.64
2018-04-14T06:33:12.491Z,989.61
2018-04-14T06:34:12.421Z,989.59
2018-04-14T06:35:12.330Z,989.59
2018-04-14T06:36:12.268Z,989.58
2018-04-14T06:37:12.291Z,989.54
2018-04-14T06:38:12.348Z,989.55
2018-04-14T06:39:12.215Z,989.55
2018-04-14T06:40:12.245Z,989.53
2018-04-14T06:41:12.366Z,989.53
2018-04-14T06:42:12.391Z,989.53
2018-04-14T06:43:12.394Z,989.56
2018-04-14T06:44:12.084Z,989.52
2018-04-14T06:45:12.017Z,989.49
2018-04-14T06:46:12.020Z,989.45
2018-04-14T06:47:11.994Z,989.47
2018-04-14T06:48:12.038Z,989.42
2018-04-14T06:49:13.122Z,989.41
2018-04-14T06:50:11.920Z,989.39
2018-04-14T06:51:11.859Z,989.35
2018-04-14T06:52:11.848Z,989.33
2018-04-14T06:53:11.917Z,989.33
2018-04-14T06:54:11.813Z,989.28
2018-04-14T06:55:11.783Z,989.29
2018-04-14T06:56:11.729Z,989.22
2018-04-14T06:57:11.727Z,989.20
2018-04-14T06:58:11.901Z,989.20
2018-04-14T06:59:11.641Z,989.19
2018-04-14T07:00:11.617Z,989.18
2018-04-14T07:01:11.589Z,989.13
2018-04-14T07:02:11.587Z,989.16
2018-04-14T07:03:11.662Z,989.15
2018-04-14T07:04:11.515Z,989.14
2018-04-14T07:05:11.484Z,989.14
2018-04-14T07:06:11.470Z,989.15
2018-04-14T07:07:11.643Z,989.15
2018-04-14T07:08:11.400Z,989.17
2018-04-14T07:09:11.500Z,989.13
2018-04-14T07:10:11.364Z,989.16
2018-04-14T07:11:11.494Z,989.16
2018-04-14T07:12:11.299Z,989.17
2018-04-14T07:13:11.263Z,989.14
2018-04-14T07:14:11.259Z,989.12
2018-04-14T07:15:11.291Z,989.11
2018-04-14T07:16:11.182Z,989.06
2018-04-14T07:17:11.180Z,989.06
2018-04-14T07:18:11.122Z,989.03
2018-04-14T07:19:11.113Z,989.07
2018-04-14T07:20:11.120Z,989.03
2018-04-14T07:21:11.036Z,989.04
2018-04-14T07:22:11.085Z,989.06
2018-04-14T07:23:11.061Z,989.09
2018-04-14T07:24:10.971Z,989.04
2018-04-14T07:25:11.083Z,989.07
2018-04-14T07:26:10.904Z,989.08
2018-04-14T07:27:10.882Z,989.05
2018-04-14T07:28:10.854Z,989.03
2018-04-14T07:29:10.832Z,988.98
2018-04-14T07:30:10.971Z,988.97
2018-04-14T07:31:10.787Z,988.95
2018-04-14T07:32:10.788Z,988.93
2018-04-14T07:33:10.704Z,988.96
2018-04-14T07:34:10.702Z,988.98
2018-04-14T07:35:10.764Z,988.95
2018-04-14T07:36:10.660Z,988.91
2018-04-14T07:37:10.602Z,988.92
2018-04-14T07:38:10.581Z,988.88
2018-04-14T07:39:10.565Z,988.85
2018-04-14T07:40:10.699Z,988.84
2018-04-14T07:41:10.492Z,988.82
2018-04-14T07:42:10.465Z,988.82
2018-04-14T07:43:10.460Z,988.82
2018-04-14T07:44:10.405Z,988.81
2018-04-14T07:45:10.400Z,988.77
2018-04-14T07:46:10.637Z,988.74
2018-04-14T07:47:10.406Z,988.74
2018-04-14T07:48:10.306Z,988.75
2018-04-14T07:49:10.287Z,988.74
2018-04-14T07:50:10.326Z,988.74
2018-04-14T07:51:10.217Z,988.74
2018-04-14T07:52:10.249Z,988.75
2018-04-14T07:53:10.217Z,988.75
2018-04-14T07:54:10.148Z,988.79
2018-04-14T07:55:10.109Z,988.77
2018-04-14T07:56:10.088Z,988.76
2018-04-14T07:57:10.110Z,988.76
2018-04-14T07:58:10.049Z,988.75
2018-04-14T07:59:10.001Z,988.74
2018-04-14T08:00:10.048Z,988.77
2018-04-14T08:01:09.950Z,988.75
2018-04-14T08:02:09.963Z,988.74
2018-04-14T08:03:09.886Z,988.73
2018-04-14T08:04:09.942Z,988.72
2018-04-14T08:05:09.816Z,988.67
2018-04-14T08:06:09.799Z,988.70
2018-04-14T08:07:09.936Z,988.70
2018-04-14T08:08:09.740Z,988.69
2018-04-14T08:09:09.728Z,988.67
2018-04-14T08:10:09.697Z,988.65
2018-04-14T08:11:09.684Z,988.67
2018-04-14T08:12:09.716Z,988.63
2018-04-14T08:13:09.624Z,988.64
2018-04-14T08:14:09.590Z,988.67
2018-04-14T08:15:09.592Z,988.65
2018-04-14T08:16:09.532Z,988.65
2018-04-14T08:17:09.553Z,988.63
2018-04-14T08:18:09.515Z,988.65
2018-04-14T08:19:09.490Z,988.62
2018-04-14T08:20:09.442Z,988.61
2018-04-14T08:21:09.388Z,988.60
2018-04-14T08:22:09.361Z,988.56
2018-04-14T08:23:09.486Z,988.60
2018-04-14T08:24:09.600Z,988.62
2018-04-14T08:25:09.271Z,988.62
2018-04-14T08:26:09.268Z,988.59
2018-04-14T08:27:09.254Z,988.63
2018-04-14T08:28:09.187Z,988.64
2018-04-14T08:29:09.228Z,988.63
2018-04-14T08:30:09.145Z,988.62
2018-04-14T08:31:09.093Z,988.60
2018-04-14T08:32:09.080Z,988.61
2018-04-14T08:33:09.054Z,988.59
2018-04-14T08:34:09.105Z,988.60
2018-04-14T08:35:09.019Z,988.58
2018-04-14T08:36:08.958Z,988.57
2018-04-14T08:37:08.940Z,988.58
2018-04-14T08:38:08.914Z,988.60
2018-04-14T08:39:09.003Z,988.57
2018-04-14T08:40:08.869Z,988.56
2018-04-14T08:41:08.829Z,988.53
2018-04-14T08:42:08.819Z,988.52
2018-04-14T08:43:08.788Z,988.51
2018-04-14T08:44:08.991Z,988.47
2018-04-14T08:45:08.728Z,988.45
2018-04-14T08:46:08.687Z,988.42
2018-04-14T08:47:08.730Z,988.46
2018-04-14T08:48:08.624Z,988.47
2018-04-14T08:49:08.775Z,988.47
2018-04-14T08:50:08.601Z,988.50
2018-04-14T08:51:08.550Z,988.51
2018-04-14T08:52:08.568Z,988.53
2018-04-14T08:53:08.502Z,988.53
2018-04-14T08:54:08.473Z,988.50
2018-04-14T08:55:08.496Z,988.56
2018-04-14T08:56:08.427Z,988.54
2018-04-14T08:57:08.489Z,988.56
2018-04-14T08:58:08.373Z,988.59
2018-04-14T08:59:08.363Z,988.62
2018-04-14T09:00:08.480Z,988.63
2018-04-14T09:01:08.323Z,988.60
2018-04-14T09:02:08.264Z,988.63
2018-04-14T09:03:08.226Z,988.63
2018-04-14T09:04:08.187Z,988.68
2018-04-14T09:05:08.331Z,988.65
2018-04-14T09:06:08.174Z,988.66
2018-04-14T09:07:08.107Z,988.67
2018-04-14T09:08:08.599Z,988.68
2018-04-14T09:09:08.241Z,988.68
2018-04-14T09:10:09.241Z,988.66
2018-04-14T09:11:08.033Z,988.66
2018-04-14T09:12:08.039Z,988.68
2018-04-14T09:13:07.971Z,988.69
2018-04-14T09:14:07.978Z,988.68
2018-04-14T09:15:07.906Z,988.73
2018-04-14T09:16:07.964Z,988.74
2018-04-14T09:17:07.830Z,988.76
2018-04-14T09:18:07.823Z,988.76
2018-04-14T09:19:07.835Z,988.77
2018-04-14T09:20:07.790Z,988.76
2018-04-14T09:21:07.828Z,988.76
2018-04-14T09:22:07.729Z,988.79
2018-04-14T09:23:07.673Z,988.79
2018-04-14T09:24:07.686Z,988.78
2018-04-14T09:25:07.639Z,988.76
2018-04-14T09:26:07.667Z,988.78
2018-04-14T09:27:07.605Z,988.78
2018-04-14T09:28:07.526Z,988.79
2018-04-14T09:29:07.524Z,988.77
2018-04-14T09:30:07.471Z,988.80
2018-04-14T09:31:07.454Z,988.82
2018-04-14T09:32:07.486Z,988.83
2018-04-14T09:33:07.407Z,988.86
2018-04-14T09:34:07.392Z,988.81
2018-04-14T09:35:07.376Z,988.84
2018-04-14T09:36:07.319Z,988.84
2018-04-14T09:37:07.360Z,988.80
2018-04-14T09:38:07.279Z,988.86
2018-04-14T09:39:07.253Z,988.81
2018-04-14T09:40:07.209Z,988.80
2018-04-14T09:41:07.185Z,988.81
2018-04-14T09:42:07.269Z,988.81
2018-04-14T09:43:07.128Z,988.80
2018-04-14T09:44:07.082Z,988.79
2018-04-14T09:45:07.085Z,988.78
2018-04-14T09:46:07.058Z,988.78
2018-04-14T09:47:07.187Z,988.78
2018-04-14T09:48:06.998Z,988.78
2018-04-14T09:49:06.962Z,988.77
2018-04-14T09:50:07.077Z,988.75
2018-04-14T09:51:06.897Z,988.75
2018-04-14T09:52:07.042Z,988.77
2018-04-14T09:53:06.840Z,988.76
2018-04-14T09:54:06.820Z,988.74
2018-04-14T09:55:06.809Z,988.71
2018-04-14T09:56:06.777Z,988.70
2018-04-14T09:57:06.752Z,988.71
2018-04-14T09:58:06.815Z,988.74
2018-04-14T09:59:06.908Z,988.68
2018-04-14T10:00:06.664Z,988.72
2018-04-14T10:01:06.630Z,988.70
2018-04-14T10:02:06.605Z,988.68
2018-04-14T10:03:06.673Z,988.68
2018-04-14T10:04:06.604Z,988.68
2018-04-14T10:05:06.522Z,988.70
2018-04-14T10:06:06.502Z,988.73
2018-04-14T10:07:06.647Z,988.71
2018-04-14T10:08:06.455Z,988.74
2018-04-14T10:09:06.422Z,988.74
2018-04-14T10:10:06.383Z,988.77
2018-04-14T10:11:06.349Z,988.80
2018-04-14T10:12:06.324Z,988.77
2018-04-14T10:13:06.333Z,988.80
2018-04-14T10:14:06.378Z,988.80
2018-04-14T10:15:06.253Z,988.79
2018-04-14T10:16:06.215Z,988.80
2018-04-14T10:17:06.254Z,988.79
2018-04-14T10:18:06.182Z,988.80
2018-04-14T10:19:06.237Z,988.77
2018-04-14T10:20:06.105Z,988.79
2018-04-14T10:21:06.115Z,988.81
2018-04-14T10:22:06.090Z,988.83
2018-04-14T10:23:06.048Z,988.83
2018-04-14T10:24:06.103Z,988.85
2018-04-14T10:25:05.980Z,988.93
2018-04-14T10:26:05.930Z,988.91
2018-04-14T10:27:05.975Z,988.94
2018-04-14T10:28:05.906Z,988.95
2018-04-14T10:29:06.020Z,988.97
2018-04-14T10:30:05.846Z,989.00
2018-04-14T10:31:05.830Z,988.97
2018-04-14T10:32:05.857Z,989.00
2018-04-14T10:33:05.769Z,989.03
2018-04-14T10:34:05.886Z,989.02
2018-04-14T10:35:05.877Z,989.04
2018-04-14T10:36:05.683Z,989.02
2018-04-14T10:37:05.645Z,989.07
2018-04-14T10:38:05.705Z,989.02
2018-04-14T10:39:05.603Z,989.03
2018-04-14T10:40:05.832Z,989.06
2018-04-14T10:41:05.565Z,989.06
2018-04-14T10:42:05.610Z,989.10
2018-04-14T10:43:05.516Z,989.12
2018-04-14T10:44:05.451Z,989.15
2018-04-14T10:45:05.461Z,989.18
2018-04-14T10:46:05.616Z,989.18
2018-04-14T10:47:05.375Z,989.22
2018-04-14T10:48:05.348Z,989.22
2018-04-14T10:49:05.331Z,989.25
2018-04-14T10:50:05.305Z,989.23
2018-04-14T10:51:05.270Z,989.25
2018-04-14T10:52:05.330Z,989.23
2018-04-14T10:53:05.224Z,989.25
2018-04-14T10:54:05.208Z,989.21
2018-04-14T10:55:05.155Z,989.24
2018-04-14T10:56:05.125Z,989.27
2018-04-14T10:57:05.196Z,989.28
2018-04-14T10:58:05.069Z,989.29
2018-04-14T10:59:05.046Z,989.30
2018-04-14T11:00:05.005Z,989.28
2018-04-14T11:01:04.968Z,989.33
2018-04-14T11:02:05.139Z,989.35
2018-04-14T11:03:04.930Z,989.34
2018-04-14T11:04:04.926Z,989.35
2018-04-14T11:05:04.896Z,989.35
2018-04-14T11:06:04.858Z,989.37
2018-04-14T11:07:04.876Z,989.38
2018-04-14T11:08:04.932Z,989.37
2018-04-14T11:09:04.809Z,989.38
2018-04-14T11:10:04.758Z,989.40
2018-04-14T11:11:04.779Z,989.43
2018-04-14T11:12:04.693Z,989.39
2018-04-14T11:13:04.811Z,989.38
2018-04-14T11:14:04.653Z,989.39
2018-04-14T11:15:04.593Z,989.38
2018-04-14T11:16:04.586Z,989.41
2018-04-14T11:17:04.676Z,989.41
2018-04-14T11:18:04.539Z,989.41
2018-04-14T11:19:04.743Z,989.42
2018-04-14T11:20:04.474Z,989.42
2018-04-14T11:21:04.461Z,989.40
2018-04-14T11:22:04.450Z,989.40
2018-04-14T11:23:04.512Z,989.42
2018-04-14T11:24:04.345Z,989.40
2018-04-14T11:25:04.653Z,989.43
2018-04-14T11:26:04.291Z,989.45
2018-04-14T11:27:04.415Z,989.42
2018-04-14T11:28:04.291Z,989.44
2018-04-14T11:29:04.251Z,989.42
2018-04-14T11:30:04.308Z,989.37
2018-04-14T11:31:04.185Z,989.35
2018-04-14T11:32:04.140Z,989.37
2018-04-14T11:33:04.123Z,989.44
2018-04-14T11:34:04.114Z,989.43
2018-04-14T11:35:04.174Z,989.45
2018-04-14T11:36:04.037Z,989.39
2018-04-14T11:37:04.005Z,989.44
2018-04-14T11:38:03.989Z,989.43
2018-04-14T11:39:03.956Z,989.46
2018-04-14T11:40:04.067Z,989.49
2018-04-14T11:41:04.265Z,989.49
2018-04-14T11:42:03.960Z,989.52
2018-04-14T11:43:04.059Z,989.55
2018-04-14T11:44:03.862Z,989.55
2018-04-14T11:45:03.821Z,989.59
2018-04-14T11:46:03.844Z,989.60
2018-04-14T11:47:03.729Z,989.59
2018-04-14T11:48:03.817Z,989.60
2018-04-14T11:49:03.690Z,989.58
2018-04-14T11:50:03.656Z,989.58
2018-04-14T11:51:03.702Z,989.59
2018-04-14T11:52:03.588Z,989.59
2018-04-14T11:53:03.579Z,989.60
2018-04-14T11:54:04.348Z,989.65
2018-04-14T11:55:03.959Z,989.64
2018-04-14T11:56:03.568Z,989.66
2018-04-14T11:57:03.542Z,989.67
2018-04-14T11:58:03.560Z,989.64
2018-04-14T11:59:03.413Z,989.67
2018-04-14T12:00:03.406Z,989.70
2018-04-14T12:01:03.361Z,989.74
2018-04-14T12:02:03.547Z,989.76
2018-04-14T12:03:03.440Z,989.77
2018-04-14T12:04:03.362Z,989.75
2018-04-14T12:05:03.248Z,989.82
2018-04-14T12:06:03.206Z,989.79
2018-04-14T12:07:03.275Z,989.80
2018-04-14T12:08:03.142Z,989.80
2018-04-14T12:09:03.135Z,989.84
2018-04-14T12:10:03.114Z,989.86
2018-04-14T12:11:03.107Z,989.91
2018-04-14T12:12:03.098Z,989.91
2018-04-14T12:13:03.219Z,989.95
2018-04-14T12:14:02.994Z,989.93
2018-04-14T12:15:02.989Z,989.96
2018-04-14T12:16:02.931Z,989.97
2018-04-14T12:17:02.935Z,989.98
2018-04-14T12:18:03.239Z,989.99
2018-04-14T12:19:02.982Z,989.99
2018-04-14T12:20:02.842Z,990.00
2018-04-14T12:21:02.805Z,989.96
2018-04-14T12:22:02.799Z,990.00
2018-04-14T12:23:02.732Z,989.98
2018-04-14T12:24:03.033Z,989.97
2018-04-14T12:25:02.699Z,989.97
2018-04-14T12:26:02.672Z,989.96
2018-04-14T12:27:02.750Z,989.96
2018-04-14T12:28:02.769Z,989.97